Time;durP1;ratioP1;P1;durP2;ratioP2;P2;SDS_P1;SDS_P2;PMS_P1;PMS_P2;Temp;Humidity;BMP_temperature;BMP_pressure;BME280_temperature;BME280_humidity;BME280_pressure;Samples;Min_cycle;Max_cycle;Signal;HPM_P1;HPM_P2
2021/12/04 00:00:47;;;;;;;;;;;;;;;9.18;80.49;99020.00;5048362;28;19913;-87
2021/12/04 00:03:12;;;;;;;;;;;;;;;9.31;80.06;99021.44;5030167;28;20327;-87
2021/12/04 00:05:40;;;;;;;;;;;;;;;9.46;79.55;99025.53;5029491;28;19927;-87
2021/12/04 00:08:06;;;;;;;;;;;;;;;9.39;79.05;99027.44;5040742;28;19978;-86
2021/12/04 00:10:31;;;;;;;;;;;;;;;9.51;79.29;99026.31;5049362;28;19920;-87
2021/12/04 00:12:57;;;;;;;;;;;;;;;9.48;79.14;99050.94;5037275;28;19975;-87
2021/12/04 00:15:22;;;;;;;;;;;;;;;9.48;78.79;99048.31;5043844;28;19920;-87
2021/12/04 00:17:48;;;;;;;;;;;;;;;9.56;78.31;99042.91;5049777;28;20352;-87
2021/12/04 00:20:13;;;;;;;;;;;;;;;9.46;78.06;99052.72;5044747;28;19912;-87
2021/12/04 00:22:38;;;;;;;;;;;;;;;9.34;79.47;99054.75;5037898;28;19950;-87
2021/12/04 00:25:07;;;;;;;;;;;;;;;9.02;80.80;99056.25;5048576;28;19987;-87
2021/12/04 00:27:33;;;;;;;;;;;;;;;9.07;80.70;99049.16;5049169;28;19943;-87
2021/12/04 00:29:58;;;;;;;;;;;;;;;9.06;80.24;99053.53;5049418;28;19917;-87
2021/12/04 00:32:31;;;;;;;;;;;;;;;9.14;80.11;99051.63;5042870;28;19917;-87
2021/12/04 00:36:00;;;;;;;;;;;;;;;9.11;79.68;99037.66;5037860;28;20533;-86
2021/12/04 00:51:14;;;;;;;;;;;;;;;9.36;79.10;99045.94;5048895;28;20416;-88
2021/12/04 00:53:40;;;;;;;;;;;;;;;9.35;79.36;99048.59;5031506;28;19917;-88
2021/12/04 00:56:06;;;;;;;;;;;;;;;9.28;79.21;99042.56;5044380;28;20296;-87
2021/12/04 00:58:31;;;;;;;;;;;;;;;9.46;78.41;99033.44;5029185;28;19996;-87
2021/12/04 01:00:57;;;;;;;;;;;;;;;9.25;78.91;99046.16;5041951;28;19928;-87
2021/12/04 01:03:22;;;;;;;;;;;;;;;9.57;79.03;99043.75;5029242;28;19923;-87
2021/12/04 01:05:47;;;;;;;;;;;;;;;9.17;79.38;99040.16;5045119;28;19920;-87
2021/12/04 01:08:13;;;;;;;;;;;;;;;9.29;79.77;99047.81;5044460;28;19920;-87
2021/12/04 01:10:38;;;;;;;;;;;;;;;9.24;78.85;99049.69;5031970;28;19925;-88
2021/12/04 01:13:10;;;;;;;;;;;;;;;9.23;79.59;99047.94;5028751;28;19921;-87
2021/12/04 01:15:40;;;;;;;;;;;;;;;9.08;79.37;99051.75;5041803;28;19920;-88
2021/12/04 01:18:05;;;;;;;;;;;;;;;9.14;79.77;99046.38;5048153;28;19917;-87
2021/12/04 01:20:31;;;;;;;;;;;;;;;9.13;79.37;99043.75;5042680;28;19913;-88
2021/12/04 01:22:56;;;;;;;;;;;;;;;9.25;79.16;99035.63;5048066;28;20572;-87
2021/12/04 01:25:21;;;;;;;;;;;;;;;9.31;78.84;99026.72;5029793;28;19927;-87
2021/12/04 01:27:47;;;;;;;;;;;;;;;9.23;78.61;99018.13;5039566;28;19921;-89
2021/12/04 01:30:12;;;;;;;;;;;;;;;9.20;77.81;99023.44;5047371;28;20428;-89
2021/12/04 01:32:38;;;;;;;;;;;;;;;9.13;78.57;99013.03;5043424;28;19970;-88
2021/12/04 01:35:04;;;;;;;;;;;;;;;9.17;77.91;99012.97;5028599;28;19924;-89
2021/12/04 01:37:29;;;;;;;;;;;;;;;9.13;78.20;99001.66;5025804;28;19928;-89
2021/12/04 01:39:54;;;;;;;;;;;;;;;9.20;77.86;98998.00;5028285;28;19913;-88
2021/12/04 01:42:23;;;;;;;;;;;;;;;9.42;76.01;99000.16;5027216;28;19928;-88
2021/12/04 01:44:49;;;;;;;;;;;;;;;9.48;75.82;99003.56;5027902;28;19928;-88
2021/12/04 01:47:15;;;;;;;;;;;;;;;9.35;75.92;98998.59;5034669;28;19958;-88
2021/12/04 01:49:40;;;;;;;;;;;;;;;9.50;75.54;98999.13;5043588;28;19956;-89
2021/12/04 01:52:07;;;;;;;;;;;;;;;9.43;75.61;99000.13;5028033;28;20000;-87
2021/12/04 01:54:32;;;;;;;;;;;;;;;9.49;75.37;99007.06;5027257;28;19916;-88
2021/12/04 01:56:58;;;;;;;;;;;;;;;9.44;75.23;99007.16;5032447;28;19920;-88
2021/12/04 01:59:23;;;;;;;;;;;;;;;9.45;75.98;99011.53;5045036;28;19925;-88
2021/12/04 02:01:49;;;;;;;;;;;;;;;9.45;75.10;99002.75;5047532;28;19917;-88
2021/12/04 02:04:14;;;;;;;;;;;;;;;9.37;75.89;99008.16;5044392;28;19924;-88
2021/12/04 02:06:39;;;;;;;;;;;;;;;9.52;76.13;99004.34;5027900;28;19917;-88
2021/12/04 02:09:05;;;;;;;;;;;;;;;9.45;76.07;99008.91;5027185;28;19928;-88
2021/12/04 02:11:30;;;;;;;;;;;;;;;9.44;76.78;99001.03;5027346;28;20339;-88
2021/12/04 02:13:55;;;;;;;;;;;;;;;9.49;75.84;98996.53;5027095;28;19924;-88
2021/12/04 02:16:22;;;;;;;;;;;;;;;9.37;76.32;98994.16;5027320;28;20406;-88
2021/12/04 02:18:47;;;;;;;;;;;;;;;9.48;75.63;98989.50;5027780;28;19917;-88
2021/12/04 02:21:14;;;;;;;;;;;;;;;9.55;75.80;98977.09;5027168;28;20394;-87
2021/12/04 02:23:39;;;;;;;;;;;;;;;9.53;75.81;98979.75;5027591;28;19916;-88
2021/12/04 02:26:05;;;;;;;;;;;;;;;9.44;76.50;98972.94;5044069;28;19924;-88
2021/12/04 02:28:30;;;;;;;;;;;;;;;9.42;76.04;98966.84;5030131;28;19917;-89
2021/12/04 02:30:56;;;;;;;;;;;;;;;9.36;76.82;98956.44;5027767;28;19917;-88
2021/12/04 02:33:21;;;;;;;;;;;;;;;9.43;76.71;98960.66;5027669;28;19917;-88
2021/12/04 02:35:48;;;;;;;;;;;;;;;9.49;76.14;98968.41;5041875;28;19928;-88
2021/12/04 02:38:15;;;;;;;;;;;;;;;9.54;75.92;98957.78;5032831;28;19970;-87
2021/12/04 02:40:43;;;;;;;;;;;;;;;9.78;75.44;98948.47;5027388;28;19974;-88
2021/12/04 02:43:08;;;;;;;;;;;;;;;9.67;74.85;98942.59;5027151;28;20644;-88
2021/12/04 02:45:34;;;;;;;;;;;;;;;9.43;75.92;98939.59;5039662;28;19913;-87
2021/12/04 02:47:59;;;;;;;;;;;;;;;9.35;75.76;98944.16;5034878;28;19924;-87
2021/12/04 02:50:24;;;;;;;;;;;;;;;9.59;75.67;98948.03;5026980;28;19924;-88
2021/12/04 02:52:50;;;;;;;;;;;;;;;9.52;74.46;98958.75;5027210;28;19921;-87
2021/12/04 02:55:16;;;;;;;;;;;;;;;9.53;74.91;98953.44;5040904;28;19920;-87
2021/12/04 02:57:44;;;;;;;;;;;;;;;9.63;74.68;98947.03;5051039;28;19944;-89
2021/12/04 03:00:12;;;;;;;;;;;;;;;9.55;73.89;98937.59;5051038;28;19952;-88
2021/12/04 03:02:38;;;;;;;;;;;;;;;9.52;74.23;98951.69;5046214;28;19916;-87
2021/12/04 03:05:07;;;;;;;;;;;;;;;9.50;74.82;98972.78;5039539;28;19923;-87
2021/12/04 03:07:33;;;;;;;;;;;;;;;9.53;74.08;98977.13;5046392;28;20304;-87
2021/12/04 03:09:58;;;;;;;;;;;;;;;9.42;74.35;98971.22;5030499;28;19951;-87
2021/12/04 03:12:24;;;;;;;;;;;;;;;9.43;74.55;98972.97;5030362;28;19917;-87
2021/12/04 03:14:50;;;;;;;;;;;;;;;9.29;74.98;98984.63;5038081;28;20390;-88
2021/12/04 03:17:19;;;;;;;;;;;;;;;9.35;74.72;98978.38;5046386;28;19978;-87
2021/12/04 03:19:44;;;;;;;;;;;;;;;9.36;74.42;98980.13;5030708;28;20372;-88
2021/12/04 03:22:10;;;;;;;;;;;;;;;9.37;74.34;98992.38;5030566;28;19928;-87
2021/12/04 03:24:39;;;;;;;;;;;;;;;9.09;74.72;98992.94;5030541;28;20321;-88
2021/12/04 03:27:04;;;;;;;;;;;;;;;9.41;73.92;98988.78;5030884;28;19917;-87
2021/12/04 03:29:31;;;;;;;;;;;;;;;9.21;73.85;98999.72;5039892;28;20011;-89
2021/12/04 03:43:04;;;;;;;;;;;;;;;8.98;73.95;98989.66;5029167;28;20368;-88
2021/12/04 03:45:30;;;;;;;;;;;;;;;8.99;73.84;98993.16;5041116;28;20360;-88
2021/12/04 03:48:05;;;;;;;;;;;;;;;9.06;72.91;98997.41;5041145;28;19921;-88
2021/12/04 03:50:30;;;;;;;;;;;;;;;9.09;73.19;98992.94;5029158;28;19917;-87
2021/12/04 03:52:55;;;;;;;;;;;;;;;8.93;73.67;98984.50;5029779;28;20825;-87
2021/12/04 03:55:21;;;;;;;;;;;;;;;8.92;74.16;98987.16;5030364;28;19924;-88
2021/12/04 03:57:46;;;;;;;;;;;;;;;8.98;74.01;98991.44;5031715;28;19925;-88
2021/12/04 04:00:12;;;;;;;;;;;;;;;8.84;73.71;98989.09;5029874;28;19932;-89
2021/12/04 04:02:38;;;;;;;;;;;;;;;8.83;73.84;98985.56;5028692;28;19928;-88
2021/12/04 04:05:04;;;;;;;;;;;;;;;8.91;73.51;98995.94;5037254;28;19921;-88
2021/12/04 04:07:29;;;;;;;;;;;;;;;8.85;74.01;98990.78;5047480;28;19917;-87
2021/12/04 04:09:55;;;;;;;;;;;;;;;8.98;73.42;98999.34;5048269;28;19920;-86
2021/12/04 04:12:20;;;;;;;;;;;;;;;8.96;73.20;98994.97;5049331;28;19924;-86
2021/12/04 04:14:45;;;;;;;;;;;;;;;9.00;73.19;98994.91;5042756;28;19921;-87
2021/12/04 04:17:11;;;;;;;;;;;;;;;9.00;72.67;98997.53;5030454;28;19917;-87
2021/12/04 04:19:36;;;;;;;;;;;;;;;8.87;72.16;98986.41;5049434;28;19920;-87
2021/12/04 04:22:02;;;;;;;;;;;;;;;8.99;71.85;98991.41;5049133;28;19912;-88
2021/12/04 04:24:28;;;;;;;;;;;;;;;9.06;71.95;98992.16;5044713;28;19921;-88
2021/12/04 04:26:54;;;;;;;;;;;;;;;8.95;72.24;98982.69;5029157;28;19917;-87
2021/12/04 04:29:20;;;;;;;;;;;;;;;8.96;71.66;98992.34;5045531;28;19928;-88
2021/12/04 04:31:49;;;;;;;;;;;;;;;8.99;72.15;98987.91;5029427;28;20386;-88
2021/12/04 04:34:27;;;;;;;;;;;;;;;8.95;72.13;99002.88;5031864;28;20019;-89
2021/12/04 05:12:22;;;;;;;;;;;;;;;8.82;71.12;99004.00;5028636;28;19913;-88
2021/12/04 05:14:44;;;;;;;;;;;;;;;8.79;71.53;99002.31;5027260;28;19921;-88
2021/12/04 05:17:15;;;;;;;;;;;;;;;8.90;70.66;99005.59;5028570;28;19924;-89
2021/12/04 05:19:46;;;;;;;;;;;;;;;8.90;70.67;99008.22;5028273;28;19909;-89
2021/12/04 05:22:13;;;;;;;;;;;;;;;8.71;71.42;99010.34;5027591;28;19952;-90
2021/12/04 05:24:39;;;;;;;;;;;;;;;8.86;71.26;99013.59;5048035;28;19917;-89
2021/12/04 05:27:05;;;;;;;;;;;;;;;8.80;71.51;99017.19;5047254;28;19917;-89
2021/12/04 05:29:30;;;;;;;;;;;;;;;8.76;71.68;99012.91;5041835;28;19921;-89
2021/12/04 05:31:56;;;;;;;;;;;;;;;8.71;72.00;99005.09;5028709;28;20322;-90
2021/12/04 05:34:21;;;;;;;;;;;;;;;8.79;71.97;99012.84;5045750;28;19943;-90
2021/12/04 05:36:46;;;;;;;;;;;;;;;8.73;72.24;99012.94;5048126;28;19920;-88
2021/12/04 05:39:12;;;;;;;;;;;;;;;8.59;72.43;99021.94;5045352;28;19924;-89
2021/12/04 05:41:37;;;;;;;;;;;;;;;8.49;73.89;99016.88;5059854;28;19913;-89
2021/12/04 05:44:06;;;;;;;;;;;;;;;8.57;73.53;99022.84;5042253;28;19920;-87
2021/12/04 05:46:39;;;;;;;;;;;;;;;8.72;73.31;99021.72;5047815;28;19912;-89
2021/12/04 05:56:55;;;;;;;;;;;;;;;8.67;73.47;99019.19;5028323;28;19917;-89
2021/12/04 05:59:21;;;;;;;;;;;;;;;8.81;73.38;99018.06;5036476;28;19927;-88
2021/12/04 06:01:46;;;;;;;;;;;;;;;8.80;72.57;99025.06;5026240;28;20192;-88
2021/12/04 06:04:11;;;;;;;;;;;;;;;8.67;73.47;99024.44;5031022;28;19917;-89
2021/12/04 06:06:37;;;;;;;;;;;;;;;8.69;72.89;99025.25;5027497;28;19925;-90
2021/12/04 06:09:03;;;;;;;;;;;;;;;8.73;72.63;99023.47;5027776;28;19972;-89
2021/12/04 06:11:29;;;;;;;;;;;;;;;8.55;72.85;99024.66;5033947;28;19916;-87
2021/12/04 06:13:55;;;;;;;;;;;;;;;8.74;72.19;99022.56;5043015;28;20003;-87
2021/12/04 06:16:21;;;;;;;;;;;;;;;8.88;72.12;99027.56;5047513;28;19917;-87
2021/12/04 06:18:47;;;;;;;;;;;;;;;8.98;71.81;99023.00;5047011;28;19974;-88
2021/12/04 06:23:57;;;;;;;;;;;;;;;8.92;71.66;99022.22;5027268;28;19931;-88
2021/12/04 06:26:23;;;;;;;;;;;;;;;8.71;72.14;99022.59;5027246;28;20790;-87
2021/12/04 06:28:48;;;;;;;;;;;;;;;8.58;72.88;99029.84;5026777;28;19913;-87
2021/12/04 06:31:14;;;;;;;;;;;;;;;8.49;73.04;99035.28;5031400;28;19921;-87
2021/12/04 06:33:40;;;;;;;;;;;;;;;8.60;72.76;99034.22;5056786;28;20361;-88
2021/12/04 06:36:06;;;;;;;;;;;;;;;8.64;73.26;99039.41;5044201;28;19917;-89
2021/12/04 06:38:32;;;;;;;;;;;;;;;8.81;72.47;99057.53;5038807;28;19913;-87
2021/12/04 06:40:57;;;;;;;;;;;;;;;8.66;72.19;99070.03;5027867;28;19920;-90
2021/12/04 06:43:23;;;;;;;;;;;;;;;8.77;71.74;99070.72;5027991;28;19940;-90
2021/12/04 06:45:58;;;;;;;;;;;;;;;8.72;71.05;99071.69;5031116;28;19920;-91
2021/12/04 06:48:27;;;;;;;;;;;;;;;8.71;71.83;99062.94;5046267;28;19917;-90
2021/12/04 06:50:57;;;;;;;;;;;;;;;8.67;71.31;99063.03;5030302;28;19921;-88
2021/12/04 06:55:50;;;;;;;;;;;;;;;8.89;69.91;99066.13;5030380;28;20495;-87
2021/12/04 06:58:16;;;;;;;;;;;;;;;8.76;70.24;99068.97;5026588;28;19913;-88
2021/12/04 07:00:41;;;;;;;;;;;;;;;8.90;70.16;99070.50;5029664;28;19974;-88
2021/12/04 07:03:06;;;;;;;;;;;;;;;8.88;69.48;99086.31;5047197;28;19978;-87
2021/12/04 07:05:32;;;;;;;;;;;;;;;8.90;69.42;99084.50;5031064;28;20463;-87
2021/12/04 07:07:57;;;;;;;;;;;;;;;9.03;68.82;99094.81;5045902;28;19928;-90
2021/12/04 07:10:26;;;;;;;;;;;;;;;8.81;69.64;99103.09;5039708;28;19964;-93
2021/12/04 07:12:51;;;;;;;;;;;;;;;9.14;69.49;99108.63;5035720;28;19929;-92
2021/12/04 07:15:17;;;;;;;;;;;;;;;8.98;69.32;99104.56;5045005;28;19927;-92
2021/12/04 07:17:42;;;;;;;;;;;;;;;9.07;69.61;99107.88;5037552;28;20394;-92
2021/12/04 07:20:08;;;;;;;;;;;;;;;8.89;70.62;99102.94;5031877;28;19928;-93
2021/12/04 07:22:34;;;;;;;;;;;;;;;8.73;71.60;99099.72;5047492;28;20741;-92
2021/12/04 07:25:00;;;;;;;;;;;;;;;8.60;72.88;99117.44;5033870;28;19968;-93
2021/12/04 07:27:31;;;;;;;;;;;;;;;8.63;73.79;99120.03;5028228;28;19949;-91
2021/12/04 07:29:57;;;;;;;;;;;;;;;8.54;73.23;99121.06;5031721;28;19963;-93
2021/12/04 07:32:24;;;;;;;;;;;;;;;8.45;73.95;99129.09;5036801;28;20373;-92
2021/12/04 07:34:50;;;;;;;;;;;;;;;8.47;74.13;99129.06;5026257;28;20410;-93
2021/12/04 07:37:15;;;;;;;;;;;;;;;8.44;73.80;99127.34;5043008;28;19913;-92
2021/12/04 07:39:41;;;;;;;;;;;;;;;8.50;74.82;99134.28;5047584;28;19980;-93
2021/12/04 07:42:06;;;;;;;;;;;;;;;8.37;74.44;99136.16;5049705;28;19917;-92
2021/12/04 07:44:31;;;;;;;;;;;;;;;8.28;74.94;99139.81;5050381;28;19916;-92
2021/12/04 07:46:57;;;;;;;;;;;;;;;8.55;74.66;99141.19;5050354;28;19932;-91
2021/12/04 07:49:22;;;;;;;;;;;;;;;8.46;74.49;99143.09;5045336;28;19971;-90
2021/12/04 07:51:48;;;;;;;;;;;;;;;8.52;74.53;99151.75;5042919;28;19963;-89
2021/12/04 07:54:14;;;;;;;;;;;;;;;8.69;74.78;99155.88;5047247;28;19924;-89
2021/12/04 07:56:39;;;;;;;;;;;;;;;8.75;73.58;99154.00;5050129;28;19921;-90
2021/12/04 07:59:05;;;;;;;;;;;;;;;8.60;74.39;99154.25;5044528;28;19917;-88
2021/12/04 08:01:30;;;;;;;;;;;;;;;8.60;74.36;99162.16;5046237;28;20413;-86
2021/12/04 08:03:55;;;;;;;;;;;;;;;8.63;74.39;99169.13;5045882;28;20414;-90
2021/12/04 08:06:21;;;;;;;;;;;;;;;8.44;74.56;99179.06;5049719;28;19917;-89
2021/12/04 08:08:46;;;;;;;;;;;;;;;8.37;75.11;99184.38;5049307;28;19912;-89
2021/12/04 08:11:12;;;;;;;;;;;;;;;8.60;74.70;99185.81;5049481;28;19917;-89
2021/12/04 08:13:37;;;;;;;;;;;;;;;8.48;73.95;99186.00;5049511;28;19924;-89
2021/12/04 08:16:02;;;;;;;;;;;;;;;8.64;73.66;99190.13;5050034;28;20452;-88
2021/12/04 08:18:28;;;;;;;;;;;;;;;8.47;73.73;99189.53;5049613;28;20720;-89
2021/12/04 08:20:53;;;;;;;;;;;;;;;8.53;73.14;99195.56;5049430;28;19966;-87
2021/12/04 08:23:19;;;;;;;;;;;;;;;8.56;72.84;99192.03;5045065;28;19921;-90
2021/12/04 08:25:45;;;;;;;;;;;;;;;8.60;74.32;99186.69;5040477;28;19917;-88
2021/12/04 08:28:10;;;;;;;;;;;;;;;8.69;73.69;99187.44;5041610;28;19967;-89
2021/12/04 08:30:40;;;;;;;;;;;;;;;8.84;72.52;99186.34;5028038;28;20018;-88
2021/12/04 08:33:06;;;;;;;;;;;;;;;9.24;72.08;99183.91;5029466;28;20379;-90
2021/12/04 08:35:35;;;;;;;;;;;;;;;9.29;71.61;99179.41;5038789;28;19924;-83
2021/12/04 08:38:01;;;;;;;;;;;;;;;9.10;72.28;99184.13;5038993;28;19927;-83
2021/12/04 08:40:27;;;;;;;;;;;;;;;9.16;71.59;99175.28;5031401;28;19921;-83
2021/12/04 08:42:52;;;;;;;;;;;;;;;9.33;70.44;99185.50;5039622;28;19920;-83
2021/12/04 08:45:18;;;;;;;;;;;;;;;9.61;71.42;99177.09;5048827;28;19977;-82
2021/12/04 08:47:43;;;;;;;;;;;;;;;9.66;71.26;99175.22;5043404;28;19917;-84
2021/12/04 08:50:12;;;;;;;;;;;;;;;9.80;69.45;99165.28;5027988;28;19913;-83
2021/12/04 08:52:38;;;;;;;;;;;;;;;9.77;69.39;99167.97;5028481;28;19978;-83
2021/12/04 08:55:04;;;;;;;;;;;;;;;10.03;68.41;99159.53;5029275;28;20019;-84
2021/12/04 08:57:29;;;;;;;;;;;;;;;9.75;67.80;99167.13;5028940;28;19913;-83
2021/12/04 08:59:55;;;;;;;;;;;;;;;9.87;67.74;99158.13;5034495;28;19916;-85
2021/12/04 09:02:20;;;;;;;;;;;;;;;9.55;67.36;99167.53;5048792;28;19920;-85
2021/12/04 09:04:47;;;;;;;;;;;;;;;9.88;67.08;99167.75;5047415;28;19924;-85
2021/12/04 09:07:13;;;;;;;;;;;;;;;10.08;66.38;99171.75;5041981;28;19921;-85
2021/12/04 09:09:38;;;;;;;;;;;;;;;9.98;66.03;99169.31;5048545;28;19997;-84
2021/12/04 09:12:06;;;;;;;;;;;;;;;10.25;65.94;99172.25;5048484;28;19918;-84
2021/12/04 09:14:33;;;;;;;;;;;;;;;10.37;64.75;99165.88;5047763;28;20132;-84
2021/12/04 09:17:00;;;;;;;;;;;;;;;10.21;64.43;99158.28;5048511;28;19966;-85
2021/12/04 09:19:27;;;;;;;;;;;;;;;10.30;64.81;99154.56;5048471;28;19924;-85
2021/12/04 09:21:53;;;;;;;;;;;;;;;10.44;65.25;99154.28;5048293;28;19916;-85
2021/12/04 09:24:25;;;;;;;;;;;;;;;10.71;66.13;99162.44;5048325;28;19916;-84
2021/12/04 10:33:37;;;;;;;;;;;;;;;12.16;68.21;99103.06;5026712;28;20445;-85
2021/12/04 10:36:03;;;;;;;;;;;;;;;12.02;67.94;99103.50;5027299;28;19917;-85
2021/12/04 10:38:32;;;;;;;;;;;;;;;11.83;68.68;99095.19;5026787;28;19913;-85
2021/12/04 10:40:57;;;;;;;;;;;;;;;11.63;68.30;99099.31;5027286;28;19928;-83
2021/12/04 10:43:29;;;;;;;;;;;;;;;11.97;67.26;99101.00;5026698;28;19917;-83
2021/12/04 10:46:00;;;;;;;;;;;;;;;11.85;66.05;99092.50;5027313;28;19913;-83
2021/12/04 10:48:28;;;;;;;;;;;;;;;11.78;68.48;99097.97;5025975;28;20377;-81
2021/12/04 10:53:48;;;;;;;;;;;;;;;11.66;70.00;99108.91;5027649;28;20362;-82
2021/12/04 11:00:03;;;;;;;;;;;;;;;11.48;70.22;99118.22;5029349;28;19963;-84
2021/12/04 11:18:43;;;;;;;;;;;;;;;11.46;69.35;99105.06;5026900;28;19971;-84
2021/12/04 11:18:54;;;;;;;;;;;;;;;11.14;67.97;99108.59;5049445;28;19931;-84
2021/12/04 11:40:55;;;;;;;;;;;;;;;11.23;68.08;99095.13;5050264;28;19920;-83
2021/12/04 11:42:58;;;;;;;;;;;;;;;11.26;68.31;99092.41;5045816;28;20718;-84
2021/12/04 11:45:31;;;;;;;;;;;;;;;11.40;67.80;99084.13;5050394;28;19971;-83
2021/12/04 11:47:57;;;;;;;;;;;;;;;11.49;67.75;99087.38;5050128;28;19917;-83
2021/12/04 11:50:26;;;;;;;;;;;;;;;11.73;66.58;99096.41;5050311;28;19923;-82
2021/12/04 11:52:52;;;;;;;;;;;;;;;11.81;65.53;99097.03;5049764;28;19968;-83
2021/12/04 11:55:20;;;;;;;;;;;;;;;11.95;64.28;99096.66;5049941;28;20039;-84
2021/12/04 11:57:46;;;;;;;;;;;;;;;11.96;65.06;99095.75;5049682;28;19916;-84
2021/12/04 12:00:23;;;;;;;;;;;;;;;11.89;66.29;99096.81;5049781;28;19956;-83
2021/12/04 12:02:49;;;;;;;;;;;;;;;12.09;65.56;99104.16;5049909;28;20357;-84
2021/12/04 12:05:18;;;;;;;;;;;;;;;11.85;65.80;99100.44;5049843;28;19966;-85
2021/12/04 12:07:51;;;;;;;;;;;;;;;11.90;66.33;99098.53;5050010;28;19954;-84
2021/12/04 12:10:17;;;;;;;;;;;;;;;12.09;65.42;99101.50;5035415;28;19925;-84
2021/12/04 12:12:43;;;;;;;;;;;;;;;12.25;65.76;99102.78;5029889;28;19928;-85
2021/12/04 12:15:34;;;;;;;;;;;;;;;12.27;65.74;99105.38;5029673;28;19921;-84
2021/12/04 12:18:11;;;;;;;;;;;;;;;12.53;64.08;99100.13;5035191;28;19921;-84
2021/12/04 12:21:01;;;;;;;;;;;;;;;12.58;64.82;99094.69;5042262;28;19956;-86
2021/12/04 12:23:27;;;;;;;;;;;;;;;12.55;65.16;99094.78;5027689;28;20015;-85
2021/12/04 12:36:22;;;;;;;;;;;;;;;12.24;66.34;99102.84;5029105;28;19917;-86
2021/12/04 12:38:51;;;;;;;;;;;;;;;12.07;67.15;99111.28;5029033;28;20402;-86
2021/12/04 12:41:26;;;;;;;;;;;;;;;12.08;66.75;99105.06;5029276;28;19920;-86
2021/12/04 12:44:01;;;;;;;;;;;;;;;11.94;67.50;99102.84;5032545;28;19924;-84
2021/12/04 12:46:34;;;;;;;;;;;;;;;11.91;67.11;99105.53;5037746;28;19928;-85
2021/12/04 12:48:59;;;;;;;;;;;;;;;11.87;67.04;99103.91;5037522;28;19920;-84
2021/12/04 12:51:32;;;;;;;;;;;;;;;11.77;67.74;99100.66;5033322;28;19921;-84
2021/12/04 12:53:59;;;;;;;;;;;;;;;12.04;66.74;99101.66;5043601;28;20449;-84
2021/12/04 12:56:27;;;;;;;;;;;;;;;12.09;66.93;99107.66;5028749;28;19925;-84
2021/12/04 12:59:04;;;;;;;;;;;;;;;11.88;67.55;99102.97;5028512;28;20357;-86
2021/12/04 13:13:25;;;;;;;;;;;;;;;11.87;67.15;99115.34;5047147;28;20306;-84
2021/12/04 13:15:52;;;;;;;;;;;;;;;12.00;66.68;99114.09;5048436;28;19931;-85
2021/12/04 13:18:22;;;;;;;;;;;;;;;11.96;66.91;99111.59;5048235;28;19916;-85
2021/12/04 13:20:49;;;;;;;;;;;;;;;12.02;66.38;99111.41;5048165;28;19917;-87
2021/12/04 13:23:16;;;;;;;;;;;;;;;11.86;66.87;99116.25;5030341;28;19921;-85
2021/12/04 13:25:51;;;;;;;;;;;;;;;11.74;67.55;99117.50;5028079;28;19974;-85
2021/12/04 13:28:21;;;;;;;;;;;;;;;11.79;66.61;99120.84;5027931;28;19924;-83
2021/12/04 13:30:46;;;;;;;;;;;;;;;11.56;67.09;99126.78;5028190;28;19979;-85
2021/12/04 13:33:11;;;;;;;;;;;;;;;11.63;66.92;99138.03;5027909;28;20497;-84
2021/12/04 13:35:37;;;;;;;;;;;;;;;11.63;66.82;99127.47;5028069;28;19917;-84
2021/12/04 13:38:03;;;;;;;;;;;;;;;11.64;66.97;99124.78;5027400;28;20051;-87
2021/12/04 13:40:29;;;;;;;;;;;;;;;11.44;67.29;99128.00;5028122;28;19913;-85
2021/12/04 13:42:54;;;;;;;;;;;;;;;11.36;67.58;99126.50;5028050;28;20662;-85
2021/12/04 13:45:20;;;;;;;;;;;;;;;11.29;67.81;99118.72;5028061;28;20387;-85
2021/12/04 13:47:56;;;;;;;;;;;;;;;11.11;68.69;99121.88;5028094;28;20348;-85
2021/12/04 13:52:51;;;;;;;;;;;;;;;11.11;68.50;99130.63;5027720;28;20011;-86
2021/12/04 13:55:18;;;;;;;;;;;;;;;11.19;67.93;99138.34;5036361;28;20434;-86
2021/12/04 13:57:43;;;;;;;;;;;;;;;11.08;68.41;99143.91;5042989;28;19927;-86
2021/12/04 14:00:11;;;;;;;;;;;;;;;11.10;68.02;99152.66;5034200;28;20729;-86
2021/12/04 14:02:36;;;;;;;;;;;;;;;11.28;67.08;99148.69;5027806;28;20489;-86
2021/12/04 14:05:09;;;;;;;;;;;;;;;11.14;67.12;99142.91;5028781;28;19913;-86
2021/12/04 14:07:35;;;;;;;;;;;;;;;11.17;67.24;99144.56;5027363;28;20677;-86
2021/12/04 14:10:14;;;;;;;;;;;;;;;11.21;66.94;99143.59;5030247;28;19913;-86
2021/12/04 14:12:40;;;;;;;;;;;;;;;11.29;66.65;99153.06;5026484;28;19924;-85
2021/12/04 14:15:09;;;;;;;;;;;;;;;11.24;66.80;99148.78;5026853;28;19917;-86
2021/12/04 14:17:34;;;;;;;;;;;;;;;11.15;67.07;99146.41;5026878;28;19978;-87
2021/12/04 14:20:00;;;;;;;;;;;;;;;11.25;66.83;99143.47;5026576;28;19952;-85
2021/12/04 14:22:25;;;;;;;;;;;;;;;11.01;67.33;99129.13;5024883;28;19917;-87
2021/12/04 14:24:56;;;;;;;;;;;;;;;11.01;67.15;99139.69;5026630;28;19921;-85
2021/12/04 14:27:23;;;;;;;;;;;;;;;11.07;67.13;99139.53;5026324;28;19913;-85
2021/12/04 14:29:51;;;;;;;;;;;;;;;11.08;67.29;99146.56;5027026;28;19951;-85
2021/12/04 14:32:21;;;;;;;;;;;;;;;10.56;69.30;99146.06;5027232;28;19917;-85
2021/12/04 14:34:46;;;;;;;;;;;;;;;10.31;71.78;99136.97;5026785;28;20417;-84
2021/12/04 14:37:13;;;;;;;;;;;;;;;10.26;72.71;99138.84;5026151;28;19913;-85
2021/12/04 14:39:40;;;;;;;;;;;;;;;10.41;72.34;99142.94;5027192;28;19912;-84
2021/12/04 14:42:13;;;;;;;;;;;;;;;10.41;71.73;99143.81;5026608;28;19913;-85
2021/12/04 14:44:39;;;;;;;;;;;;;;;10.63;71.32;99151.19;5026956;28;19952;-85
2021/12/04 14:47:06;;;;;;;;;;;;;;;10.52;72.01;99152.34;5026908;28;19960;-84
2021/12/04 14:49:31;;;;;;;;;;;;;;;10.59;71.65;99162.75;5025496;28;19969;-86
2021/12/04 14:51:56;;;;;;;;;;;;;;;10.64;71.00;99161.72;5027776;28;20416;-87
2021/12/04 14:54:26;;;;;;;;;;;;;;;10.51;71.46;99155.00;5031243;28;20358;-85
2021/12/04 14:56:52;;;;;;;;;;;;;;;10.38;72.09;99164.97;5026951;28;19987;-84
2021/12/04 14:59:17;;;;;;;;;;;;;;;10.19;73.30;99164.47;5031804;28;20386;-88
2021/12/04 15:01:43;;;;;;;;;;;;;;;10.16;73.21;99168.06;5043302;28;19917;-88
2021/12/04 15:04:09;;;;;;;;;;;;;;;10.13;73.64;99164.59;5037830;28;20940;-87
2021/12/04 15:06:39;;;;;;;;;;;;;;;10.21;72.80;99171.44;5030554;28;20384;-85
2021/12/04 15:09:14;;;;;;;;;;;;;;;10.16;73.17;99170.69;5029633;28;19995;-85
2021/12/04 15:11:40;;;;;;;;;;;;;;;9.97;73.73;99178.09;5027304;28;20417;-84
2021/12/04 15:14:14;;;;;;;;;;;;;;;10.02;73.73;99176.25;5030698;28;19924;-84
2021/12/04 15:16:46;;;;;;;;;;;;;;;9.89;73.69;99172.13;5030960;28;19916;-84
2021/12/04 15:19:15;;;;;;;;;;;;;;;9.79;74.43;99173.22;5028997;28;19917;-85
2021/12/04 15:21:53;;;;;;;;;;;;;;;9.80;74.23;99178.44;5027340;28;19917;-84
2021/12/04 15:24:23;;;;;;;;;;;;;;;9.82;74.79;99176.66;5030547;28;20241;-85
2021/12/04 15:26:51;;;;;;;;;;;;;;;9.93;74.27;99171.19;5028946;28;19921;-83
2021/12/04 15:29:20;;;;;;;;;;;;;;;9.81;74.23;99174.91;5029474;28;19921;-84
2021/12/04 15:31:47;;;;;;;;;;;;;;;9.88;74.13;99177.44;5030165;28;19936;-83
2021/12/04 15:34:12;;;;;;;;;;;;;;;9.80;74.50;99178.44;5029681;28;19917;-84
2021/12/04 15:36:43;;;;;;;;;;;;;;;9.67;74.30;99183.09;5028328;28;20021;-84
2021/12/04 15:39:15;;;;;;;;;;;;;;;9.60;73.92;99177.97;5029781;28;19975;-84
2021/12/04 15:44:41;;;;;;;;;;;;;;;9.48;75.89;99181.69;5030146;28;19992;-84
2021/12/04 15:48:26;;;;;;;;;;;;;;;9.45;76.32;99181.75;5030104;28;20115;-85
2021/12/04 15:55:36;;;;;;;;;;;;;;;9.50;76.26;99177.28;5035038;28;19923;-87
2021/12/04 15:58:04;;;;;;;;;;;;;;;9.56;76.57;99187.72;5029713;28;19917;-84
2021/12/04 16:00:31;;;;;;;;;;;;;;;9.42;77.31;99192.34;5030394;28;19913;-82
2021/12/04 16:02:58;;;;;;;;;;;;;;;9.50;76.67;99195.72;5030156;28;20391;-85
2021/12/04 16:05:25;;;;;;;;;;;;;;;9.41;75.90;99204.66;5029638;28;19913;-85
2021/12/04 16:08:00;;;;;;;;;;;;;;;9.64;76.07;99201.59;5029625;28;19925;-82
2021/12/04 16:10:26;;;;;;;;;;;;;;;9.62;75.60;99205.13;5029144;28;19932;-84
2021/12/04 16:12:53;;;;;;;;;;;;;;;9.70;75.84;99205.00;5028473;28;19917;-85
2021/12/04 16:15:20;;;;;;;;;;;;;;;9.90;75.04;99201.97;5028886;28;20314;-84
2021/12/04 16:17:46;;;;;;;;;;;;;;;9.99;74.78;99201.78;5030115;28;19923;-84
2021/12/04 16:20:13;;;;;;;;;;;;;;;10.14;73.77;99195.34;5049298;28;19917;-85
2021/12/04 16:22:40;;;;;;;;;;;;;;;10.26;72.61;99194.22;5047162;28;19920;-86
2021/12/04 16:25:18;;;;;;;;;;;;;;;10.29;71.58;99197.66;5048868;28;19920;-83